• Join FlightAware (Why Join?)
  • Login
  • US Flag 
09:02AM EDT


 

Airport Tracker/Info


-or-


 

Live Flight TrackerFlight Track Log ✈ KAP927 ✈ 03-May-2013 ✈ KOGS - KALB

Flight Track Log - Related Links

Times and Time Zones

All times are in EDT time to prevent confusion due to time zone crossing. See the KAP927 flight status page for this flight to view local times or setup timezone preferences in your user account.

Time Position Orientation Groundspeed Altitude Reporting Facility
EDT Latitude Longitude Course Direction KTS MPH feet Rate Location/Type
07:13AM 44.4839 -75.2306 149° Southeast 150 173 4,400  Level Boston Center
07:14AM 44.4533 -75.2031 147° Southeast 135 155 4,900 480 Climbing Boston Center
07:15AM 44.4225 -75.1783 150° Southeast 129 148 5,400 540 Climbing Boston Center
07:16AM 44.3919 -75.1536 150° Southeast 129 148 6,000 540 Climbing Boston Center
07:17AM 44.3614 -75.1203 142° Southeast 135 155 6,500 480 Climbing Boston Center
07:18AM 44.4772 -75.2831 149° Southeast  Level Estimated
07:18AM 44.3264 -75.0983 156° South 140 161 7,000  Level Boston Center
07:19AM 44.2917 -75.0678 148° Southeast 140 161 7,500 300 Climbing Boston Center
07:20AM 44.2550 -75.0372 149° Southeast 140 161 7,600 60 Climbing Boston Center
07:21AM 44.2161 -75.0067 151° Southeast 151 174 7,700 -60 Climbing Boston Center
07:22AM 44.1772 -74.9731 148° Southeast 157 181 7,500 -120 Descending Boston Center
07:23AM 44.1383 -74.9394 148° Southeast 162 186 7,500  Level Boston Center
07:24AM 44.0933 -74.9031 150° Southeast 162 186 7,600  Climbing Boston Center
07:25AM 44.0522 -74.8667 148° Southeast 162 186 7,600  Level Boston Center
07:26AM 44.0133 -74.8333 148° Southeast 162 186 7,600  Level Boston Center
07:27AM 43.9725 -74.8000 150° Southeast 167 192 7,600  Level Boston Center
07:28AM 43.9397 -74.7728 149° Southeast 167 192 7,600 -60 Level Boston Center
07:29AM 43.8906 -74.7333 150° Southeast 167 192 7,500  Descending Boston Center
07:30AM 43.8514 -74.7003 149° Southeast 167 192 7,600  Climbing Boston Center
07:31AM 43.8083 -74.6669 151° Southeast 167 192 7,600 -60 Level Boston Center
07:32AM 43.7756 -74.6397 149° Southeast 167 192 7,500 -60 Descending Boston Center
07:33AM 43.7283 -74.6006 149° Southeast 167 192 7,500  Level Boston Center
07:34AM 43.6894 -74.5678 149° Southeast 167 192 7,500  Level Boston Center
07:35AM 43.6503 -74.5347 149° Southeast 167 192 7,600  Climbing Boston Center
07:36AM 43.6094 -74.5017 150° Southeast 167 192 7,600 -60 Level Boston Center
07:37AM 43.5703 -74.4689 149° Southeast 167 192 7,500 -60 Descending Boston Center
07:38AM 43.5314 -74.4361 149° Southeast 167 192 7,500  Level Boston Center
07:39AM 43.4922 -74.4061 151° Southeast 167 192 7,500  Level Boston Center
07:39AM 43.4758 -74.3942 152° Southeast 164 189 7,500 -120 Level Boston Center
07:40AM 43.4533 -74.3706 143° Southeast 167 192 7,400  Descending Boston Center
07:40AM 43.4389 -74.3617 156° South 168 193 7,500 -120 Climbing Boston Center
07:41AM 43.4142 -74.3381 145° Southeast 167 192 7,300 60 Descending Boston Center
07:41AM 43.3978 -74.3261 152° Southeast 165 190 7,600 180 Climbing Boston Center
07:42AM 43.3750 -74.3083 150° Southeast 161 185 7,500 -180 Descending Boston Center
07:42AM 43.3544 -74.2933 152° Southeast 160 184 7,400  Descending Boston Center
07:43AM 43.3400 -74.2786 143° Southeast 161 185 7,500 -240 Climbing Boston Center
07:43AM 43.3217 -74.2667 155° Southeast 162 186 7,200 -540 Descending Boston Center
07:44AM 43.2947 -74.2431 147° Southeast 171 197 7,000 -420 Descending Boston Center
07:44AM 43.2783 -74.2311 152° Southeast 176 203 6,800 -420 Descending Boston Center
07:45AM 43.2578 -74.2106 144° Southeast 176 203 6,600 -540 Descending Boston Center
07:45AM 43.2350 -74.1956 154° Southeast 180 207 6,300 -540 Descending Boston Center
07:46AM 43.2106 -74.1722 145° Southeast 181 208 6,100 -480 Descending Boston Center
07:46AM 43.1856 -74.1572 156° South 179 206 5,800 -420 Descending Boston Center
07:47AM 43.1733 -74.1425 139° Southeast 181 208 5,700 -420 Descending Boston Center
07:47AM 43.1444 -74.1219 153° Southeast 175 201 5,400 -300 Descending Boston Center
07:48AM 43.1239 -74.1069 152° Southeast 181 208 5,400 -240 Level Boston Center
07:48AM 43.1053 -74.1008 167° South 169 194 5,200 -300 Descending Boston Center
07:49AM 43.0889 -74.0833 142° Southeast 174 200 5,100 -300 Descending Boston Center
07:49AM 43.0619 -74.0683 158° South 165 190 4,900 -300 Descending Boston Center
07:50AM 43.0433 -74.0508 146° Southeast 174 200 4,800 -240 Descending Boston Center
07:50AM 43.0228 -74.0306 144° Southeast 159 183 4,700 -240 Descending Boston Center
07:51AM 43.0125 -74.0189 140° Southeast 167 192 4,600 -360 Descending Boston Center
07:52AM 42.9733 -73.9867 149° Southeast 159 183 4,300 -360 Descending Boston Center
07:52AM 42.9425 -73.9575 145° Southeast 162 186 4,000 -420 Descending Boston Center
07:53AM 42.9033 -73.9225 147° Southeast 157 181 3,500 -480 Descending Boston Center
07:54AM 42.8706 -73.8878 142° Southeast 157 181 3,100 -600 Descending Boston Center
07:55AM 42.8397 -73.8531 140° Southeast 142 163 2,400 -780 Descending Boston Center
07:57AM 42.8089 -73.8239 145° Southeast 124 143 1,600 -840 Descending Boston Center
07:57AM 42.7778 -73.8092 161° South 128 147 800 -900 Descending Boston Center
07:59AM 42.7491 -73.8020 160° South  Level Estimated
08:06AM 42.7491 -73.8020 160° South  Level Estimated
08:07AM 42.7491 -73.8020 160° South  Level Estimated
08:08AM 42.7491 -73.8020 160° South  Level Estimated
08:09AM 42.7491 -73.8020 160° South  Level Estimated